Time;durP1;ratioP1;P1;durP2;ratioP2;P2;SDS_P1;SDS_P2;PMS_P1;PMS_P2;Temp;Humidity;BMP_temperature;BMP_pressure;BME280_temperature;BME280_humidity;BME280_pressure;Samples;Min_cycle;Max_cycle;Signal;HPM_P1;HPM_P2
2022/09/13 00:00:14;;;;;;;6.22;5.60;;;14.80;91.20;;;;;;4933862;29;20062;-82
2022/09/13 00:02:40;;;;;;;6.60;5.70;;;14.80;91.20;;;;;;4931313;28;20030;-82
2022/09/13 00:05:06;;;;;;;7.18;6.18;;;14.80;91.20;;;;;;4927526;29;20023;-82
2022/09/13 00:07:32;;;;;;;6.07;5.47;;;14.80;91.20;;;;;;4951479;28;20046;-82
2022/09/13 00:09:58;;;;;;;5.63;4.70;;;14.80;91.30;;;;;;4941935;29;20061;-82
2022/09/13 00:12:23;;;;;;;6.15;5.35;;;14.80;91.30;;;;;;4935339;28;20086;-82
2022/09/13 00:14:49;;;;;;;5.45;4.70;;;14.80;91.30;;;;;;4953790;29;20067;-82
2022/09/13 00:17:15;;;;;;;5.47;4.50;;;14.80;91.40;;;;;;4933251;29;20031;-82
2022/09/13 00:19:40;;;;;;;5.38;4.53;;;14.90;91.40;;;;;;4936953;29;20090;-83
2022/09/13 00:22:06;;;;;;;4.95;4.45;;;14.90;91.30;;;;;;4936008;28;20066;-82
2022/09/13 00:24:32;;;;;;;5.70;4.65;;;14.90;91.30;;;;;;4946164;28;20115;-82
2022/09/13 00:26:59;;;;;;;5.15;4.55;;;15.00;91.20;;;;;;4936099;29;20121;-82
2022/09/13 00:29:26;;;;;;;6.13;4.40;;;15.00;91.10;;;;;;4925084;29;20471;-82
2022/09/13 00:31:52;;;;;;;5.30;4.32;;;15.00;91.00;;;;;;4937362;29;20395;-82
2022/09/13 00:34:17;;;;;;;5.53;4.47;;;15.00;91.00;;;;;;4934173;29;20029;-82
2022/09/13 00:36:43;;;;;;;4.20;3.75;;;15.00;90.90;;;;;;4952787;29;20027;-82
2022/09/13 00:39:10;;;;;;;4.30;3.90;;;15.00;91.00;;;;;;4933510;29;20035;-82
2022/09/13 00:41:37;;;;;;;5.00;4.15;;;15.10;90.90;;;;;;4931109;29;20059;-82
2022/09/13 00:44:05;;;;;;;4.75;4.10;;;15.00;90.90;;;;;;4928824;29;20126;-82
2022/09/13 00:46:36;;;;;;;4.38;3.65;;;15.10;90.90;;;;;;4950305;28;20031;-82
2022/09/13 00:49:35;;;;;;;3.20;2.85;;;15.10;90.80;;;;;;4941750;29;20042;-82
2022/09/13 00:52:06;;;;;;;4.65;4.00;;;15.10;90.70;;;;;;4929537;29;20110;-82
2022/09/13 00:54:42;;;;;;;4.78;4.20;;;15.10;90.80;;;;;;4922795;29;20475;-82
2022/09/13 00:57:10;;;;;;;3.90;3.40;;;15.10;90.70;;;;;;4933371;28;20045;-83
2022/09/13 00:59:44;;;;;;;4.80;3.88;;;15.00;90.80;;;;;;4933716;29;20257;-82
2022/09/13 01:02:11;;;;;;;4.20;3.60;;;15.00;90.70;;;;;;4928809;29;20190;-82
2022/09/13 01:04:38;;;;;;;4.90;3.95;;;15.00;90.70;;;;;;4930899;29;20023;-82
2022/09/13 01:07:09;;;;;;;4.25;3.47;;;15.00;90.70;;;;;;4948269;29;20125;-82
2022/09/13 01:09:39;;;;;;;3.97;3.58;;;15.00;90.80;;;;;;4927767;29;20055;-82
2022/09/13 01:12:32;;;;;;;3.92;3.53;;;14.90;90.90;;;;;;4941627;28;20027;-82
2022/09/13 01:14:59;;;;;;;3.55;2.97;;;14.90;90.70;;;;;;4936137;29;20039;-82
2022/09/13 01:17:30;;;;;;;4.95;3.88;;;15.00;90.90;;;;;;4936603;28;20023;-82
2022/09/13 01:19:56;;;;;;;3.83;3.42;;;14.90;90.90;;;;;;4949913;28;20027;-82
2022/09/13 01:22:43;;;;;;;3.45;3.15;;;14.90;90.90;;;;;;4936197;29;20172;-82
2022/09/13 01:25:33;;;;;;;3.67;3.20;;;14.90;90.90;;;;;;4941983;28;20059;-82
2022/09/13 01:28:34;;;;;;;3.60;3.03;;;14.90;90.90;;;;;;4936725;28;20043;-82
2022/09/13 01:31:05;;;;;;;3.28;2.97;;;14.90;90.90;;;;;;4927804;29;20038;-82
2022/09/13 01:33:49;;;;;;;3.50;3.20;;;14.90;91.10;;;;;;4947946;29;20031;-82
2022/09/13 01:36:51;;;;;;;4.15;3.42;;;14.90;90.90;;;;;;4939192;28;20027;-82
2022/09/13 01:39:33;;;;;;;3.30;3.00;;;15.00;90.90;;;;;;4950865;29;20031;-82
2022/09/13 01:42:12;;;;;;;;;;;14.90;91.10;;;;;;4951520;28;20037;-82
2022/09/13 01:44:51;;;;;;;3.28;2.97;;;14.90;90.90;;;;;;4936427;29;19932;-83
2022/09/13 01:47:26;;;;;;;3.03;2.83;;;14.90;91.00;;;;;;4936664;29;20023;-82
2022/09/13 01:50:30;;;;;;;3.17;2.90;;;14.90;91.10;;;;;;4935480;29;20023;-82
2022/09/13 01:53:35;;;;;;;3.17;2.88;;;14.90;91.10;;;;;;4951862;29;20058;-82
2022/09/13 01:56:19;;;;;;;3.60;3.30;;;14.90;90.90;;;;;;4866065;29;20039;-82
2022/09/13 01:58:57;;;;;;;3.13;2.80;;;14.90;91.10;;;;;;4937964;29;20036;-82
2022/09/13 02:01:34;;;;;;;3.65;3.10;;;14.90;91.20;;;;;;4947063;29;20035;-82
2022/09/13 02:04:03;;;;;;;3.45;2.95;;;14.90;91.20;;;;;;4930921;28;20035;-82
2022/09/13 02:06:46;;;;;;;3.42;3.13;;;14.90;91.20;;;;;;4953278;28;20027;-82
2022/09/13 02:09:15;;;;;;;3.53;3.20;;;15.00;91.10;;;;;;4926023;29;20031;-83
2022/09/13 02:11:46;;;;;;;3.22;2.92;;;15.00;91.10;;;;;;4938956;29;20024;-82
2022/09/13 02:14:19;;;;;;;3.22;2.92;;;15.00;91.20;;;;;;4930445;29;20383;-82
2022/09/13 02:17:03;;;;;;;3.42;2.92;;;15.00;91.20;;;;;;4934479;29;20023;-82
2022/09/13 02:19:46;;;;;;;3.55;3.20;;;15.00;91.10;;;;;;4933091;29;20027;-82
2022/09/13 02:22:16;;;;;;;3.22;2.92;;;15.00;91.00;;;;;;4935274;29;20027;-82
2022/09/13 02:24:47;;;;;;;3.40;3.10;;;15.00;91.10;;;;;;4950273;28;20539;-82
2022/09/13 02:27:18;;;;;;;3.15;2.85;;;15.00;91.10;;;;;;4931250;29;20039;-82
2022/09/13 02:29:47;;;;;;;3.15;2.85;;;14.90;91.10;;;;;;4939749;28;20043;-82
2022/09/13 02:32:19;;;;;;;3.13;2.83;;;14.90;91.20;;;;;;4933206;29;20066;-82
2022/09/13 02:34:47;;;;;;;;;;;15.00;91.20;;;;;;4940889;29;20019;-82
2022/09/13 02:37:13;;;;;;;2.83;2.63;;;14.90;91.00;;;;;;4930924;29;20017;-82
2022/09/13 02:39:48;;;;;;;2.80;2.60;;;14.90;91.20;;;;;;4949930;28;20032;-82
2022/09/13 02:42:20;;;;;;;2.92;2.70;;;14.90;91.30;;;;;;4950886;29;20110;-82
2022/09/13 02:44:51;;;;;;;3.08;2.78;;;14.90;91.20;;;;;;4934970;29;20078;-83
2022/09/13 02:47:32;;;;;;;3.95;3.20;;;14.90;91.30;;;;;;4951519;29;20023;-82
2022/09/13 02:50:35;;;;;;;3.67;3.00;;;14.90;91.20;;;;;;4927132;29;20036;-82
2022/09/13 02:53:32;;;;;;;2.92;2.63;;;14.90;91.20;;;;;;4932561;29;20027;-82
2022/09/13 02:56:13;;;;;;;3.22;2.92;;;14.90;91.20;;;;;;4934240;28;20024;-83
2022/09/13 02:58:47;;;;;;;3.33;3.03;;;14.90;91.40;;;;;;4936396;29;20031;-82
2022/09/13 03:01:14;;;;;;;3.42;3.13;;;14.90;91.40;;;;;;4934981;29;20483;-82
2022/09/13 03:03:39;;;;;;;3.22;2.90;;;14.90;91.60;;;;;;4949391;29;20038;-82
2022/09/13 03:06:05;;;;;;;3.63;3.10;;;14.90;91.60;;;;;;4930140;29;20035;-82
2022/09/13 03:08:32;;;;;;;3.55;3.15;;;14.90;91.60;;;;;;4946532;29;20047;-82
2022/09/13 03:11:13;;;;;;;3.10;2.75;;;14.90;91.70;;;;;;4955691;29;20023;-82
2022/09/13 03:13:41;;;;;;;3.38;3.05;;;14.90;91.50;;;;;;4938527;28;20061;-82
2022/09/13 03:16:13;;;;;;;3.35;3.05;;;14.90;91.70;;;;;;4954880;29;20019;-82
2022/09/13 03:18:48;;;;;;;2.90;2.65;;;14.90;91.70;;;;;;4934549;28;20031;-82
2022/09/13 03:21:43;;;;;;;3.97;3.58;;;14.90;91.80;;;;;;4936749;29;20030;-82
2022/09/13 03:24:27;;;;;;;3.53;2.95;;;14.90;91.70;;;;;;4937784;29;20031;-82
2022/09/13 03:27:19;;;;;;;3.42;3.13;;;14.90;91.70;;;;;;4938308;29;20039;-82
2022/09/13 03:30:05;;;;;;;3.83;3.42;;;14.90;91.70;;;;;;4907319;29;20403;-82
2022/09/13 03:32:52;;;;;;;3.00;2.70;;;14.90;91.70;;;;;;4943419;28;20074;-82
2022/09/13 03:35:32;;;;;;;3.92;3.53;;;14.90;91.80;;;;;;4955005;28;20035;-82
2022/09/13 03:37:58;;;;;;;3.90;3.05;;;14.90;91.80;;;;;;4952217;29;20035;-82
2022/09/13 03:40:48;;;;;;;3.53;3.00;;;14.90;92.00;;;;;;4936790;29;20027;-82
2022/09/13 03:43:22;;;;;;;5.38;3.70;;;14.90;92.00;;;;;;4935525;29;20023;-82
2022/09/13 03:45:53;;;;;;;3.97;3.35;;;14.90;92.10;;;;;;4935032;28;20027;-82
2022/09/13 03:48:19;;;;;;;4.33;3.93;;;14.90;92.20;;;;;;4929471;29;20023;-83
2022/09/13 03:50:46;;;;;;;4.10;3.40;;;14.90;92.30;;;;;;4933662;29;20034;-82
2022/09/13 03:53:18;;;;;;;5.70;4.90;;;14.90;92.40;;;;;;4937421;29;20020;-82
2022/09/13 03:55:44;;;;;;;5.95;4.63;;;15.00;92.40;;;;;;4937889;29;20042;-82
2022/09/13 03:58:15;;;;;;;5.00;4.28;;;15.00;92.40;;;;;;4939857;29;20031;-82
2022/09/13 04:00:41;;;;;;;5.00;4.20;;;15.00;92.40;;;;;;4954389;28;20066;-82
2022/09/13 04:03:08;;;;;;;5.25;4.25;;;15.00;92.40;;;;;;4937766;29;20035;-82
2022/09/13 04:05:34;;;;;;;4.57;3.88;;;15.00;92.40;;;;;;4955469;28;20074;-82
2022/09/13 04:08:01;;;;;;;5.03;3.70;;;15.00;92.40;;;;;;4936812;29;20039;-82
2022/09/13 04:10:30;;;;;;;3.85;3.15;;;15.10;92.50;;;;;;4945834;28;20429;-82
2022/09/13 04:12:55;;;;;;;3.58;3.00;;;15.10;92.60;;;;;;4929268;29;20118;-82
2022/09/13 04:15:21;;;;;;;3.33;2.90;;;15.10;92.60;;;;;;4924821;29;20111;-82
2022/09/13 04:17:47;;;;;;;3.72;3.03;;;15.20;92.70;;;;;;4932525;29;20525;-82
2022/09/13 04:20:13;;;;;;;3.40;2.97;;;15.20;92.70;;;;;;4937873;29;20031;-82
2022/09/13 04:22:39;;;;;;;3.40;3.03;;;15.20;92.80;;;;;;4924272;29;20469;-82
2022/09/13 04:25:05;;;;;;;3.55;3.08;;;15.20;92.90;;;;;;4954280;29;20063;-82
2022/09/13 04:27:31;;;;;;;3.03;2.83;;;15.30;92.80;;;;;;4930355;29;20080;-82
2022/09/13 04:29:56;;;;;;;3.10;2.80;;;15.30;92.90;;;;;;4934971;29;20518;-82
2022/09/13 04:32:22;;;;;;;2.95;2.63;;;15.30;92.90;;;;;;4934822;29;20058;-82
2022/09/13 04:34:48;;;;;;;3.25;2.83;;;15.40;92.90;;;;;;4915808;29;20063;-83
2022/09/13 04:37:13;;;;;;;3.53;3.13;;;15.40;92.90;;;;;;4935244;29;20024;-82
2022/09/13 04:39:39;;;;;;;3.80;3.40;;;15.40;92.90;;;;;;4931149;29;20036;-82
2022/09/13 04:42:06;;;;;;;3.97;3.30;;;15.40;92.90;;;;;;4912924;29;20479;-82
2022/09/13 04:44:32;;;;;;;4.60;3.85;;;15.50;93.00;;;;;;4913118;29;20040;-82
2022/09/13 04:46:59;;;;;;;4.72;3.97;;;15.50;92.90;;;;;;4931416;29;20176;-82
2022/09/13 04:49:24;;;;;;;4.00;3.60;;;15.50;92.90;;;;;;4924534;29;20027;-82
2022/09/13 04:51:50;;;;;;;4.53;3.65;;;15.50;92.90;;;;;;4905789;29;20074;-82
2022/09/13 04:54:16;;;;;;;4.40;3.78;;;15.50;92.90;;;;;;4927441;29;20382;-82
2022/09/13 04:56:45;;;;;;;5.75;5.07;;;15.60;92.90;;;;;;4925223;29;20046;-82
2022/09/13 04:59:12;;;;;;;4.95;4.40;;;15.60;93.00;;;;;;4913479;29;20071;-83
2022/09/13 05:01:38;;;;;;;5.63;4.80;;;15.60;92.80;;;;;;4910123;29;20035;-82
2022/09/13 05:04:05;;;;;;;5.82;5.25;;;15.60;92.70;;;;;;4913879;29;20043;-82
2022/09/13 05:06:31;;;;;;;5.95;5.05;;;15.60;92.60;;;;;;4912795;29;20059;-82
2022/09/13 05:08:57;;;;;;;6.10;5.22;;;15.60;92.60;;;;;;4905957;29;20622;-82
2022/09/13 05:11:27;;;;;;;6.47;5.55;;;15.70;92.60;;;;;;4922876;29;20130;-82
2022/09/13 05:13:57;;;;;;;6.85;5.60;;;15.70;92.60;;;;;;4914587;29;20472;-82
2022/09/13 05:16:31;;;;;;;6.55;5.45;;;15.70;92.50;;;;;;4914961;29;20024;-83
2022/09/13 05:18:57;;;;;;;6.03;5.03;;;15.70;92.30;;;;;;4912353;29;20036;-83
2022/09/13 05:21:23;;;;;;;6.38;5.30;;;15.70;92.40;;;;;;4909657;29;20059;-82
2022/09/13 05:23:53;;;;;;;7.10;6.07;;;15.80;92.40;;;;;;4910054;29;20512;-82
2022/09/13 05:26:20;;;;;;;6.70;6.00;;;15.80;92.30;;;;;;4911289;29;20669;-82
2022/09/13 05:28:46;;;;;;;8.52;6.30;;;15.80;92.30;;;;;;4920239;29;20127;-83
2022/09/13 05:31:15;;;;;;;8.55;6.90;;;15.80;92.20;;;;;;4918165;29;20126;-82
2022/09/13 05:33:41;;;;;;;7.30;6.47;;;15.80;92.10;;;;;;4926516;29;20248;-83
2022/09/13 05:36:07;;;;;;;7.88;6.63;;;15.80;92.10;;;;;;4926864;29;20446;-82
2022/09/13 05:38:32;;;;;;;7.13;6.28;;;15.80;92.10;;;;;;4925044;29;20042;-82
2022/09/13 05:41:00;;;;;;;8.75;6.05;;;15.90;92.10;;;;;;4925682;29;20040;-82
2022/09/13 05:43:28;;;;;;;7.15;6.00;;;15.90;92.00;;;;;;4927774;29;20480;-82
2022/09/13 05:46:13;;;;;;;7.68;6.22;;;15.90;91.90;;;;;;4925063;29;20035;-82
2022/09/13 05:48:40;;;;;;;6.78;5.70;;;15.90;91.80;;;;;;4913279;29;20488;-81
2022/09/13 05:51:15;;;;;;;6.78;6.00;;;15.90;91.80;;;;;;4934139;28;20111;-81
2022/09/13 05:53:43;;;;;;;7.00;5.95;;;15.90;91.70;;;;;;4922711;29;20095;-82
2022/09/13 05:56:12;;;;;;;6.53;5.07;;;15.90;91.60;;;;;;4914778;29;20023;-82
2022/09/13 05:58:40;;;;;;;6.93;5.82;;;15.90;91.70;;;;;;4919754;29;20119;-81
2022/09/13 06:01:06;;;;;;;6.15;5.22;;;15.90;91.60;;;;;;4908456;29;20032;-82
2022/09/13 06:03:32;;;;;;;6.53;5.60;;;15.90;91.60;;;;;;4915349;29;20036;-81
2022/09/13 06:05:58;;;;;;;6.65;5.43;;;15.90;91.70;;;;;;4919224;29;20425;-82
2022/09/13 06:08:25;;;;;;;6.10;4.75;;;15.80;91.70;;;;;;4916816;29;20765;-80
2022/09/13 06:11:01;;;;;;;5.63;5.07;;;15.80;91.70;;;;;;4913575;29;20042;-82
2022/09/13 06:13:28;;;;;;;5.90;4.90;;;15.80;91.70;;;;;;4915895;29;20514;-81
2022/09/13 06:15:55;;;;;;;5.88;5.00;;;15.80;91.90;;;;;;4904336;29;20032;-82
2022/09/13 06:18:22;;;;;;;4.90;4.28;;;15.80;91.90;;;;;;4902089;29;20036;-83
2022/09/13 06:20:48;;;;;;;5.32;4.40;;;15.80;92.00;;;;;;4905630;29;20678;-82
2022/09/13 06:23:14;;;;;;;6.07;5.20;;;15.80;92.00;;;;;;4913867;29;20159;-83
2022/09/13 06:25:40;;;;;;;4.50;3.78;;;15.80;92.00;;;;;;4911555;29;20373;-84
2022/09/13 06:28:06;;;;;;;7.25;4.97;;;15.80;92.00;;;;;;4907114;29;20028;-83
2022/09/13 06:30:32;;;;;;;5.07;4.50;;;15.80;92.10;;;;;;4908397;29;20031;-83
2022/09/13 06:32:58;;;;;;;5.40;4.28;;;15.80;92.10;;;;;;4913394;29;20020;-82
2022/09/13 06:35:24;;;;;;;5.38;4.30;;;15.80;92.10;;;;;;4919487;29;20064;-82
2022/09/13 06:37:50;;;;;;;4.63;3.92;;;15.80;92.20;;;;;;4915037;29;20496;-82
2022/09/13 06:40:16;;;;;;;4.30;3.90;;;15.80;92.20;;;;;;4913677;29;20040;-83
2022/09/13 06:42:42;;;;;;;4.75;3.67;;;15.80;92.30;;;;;;4919618;29;20032;-82
2022/09/13 06:45:08;;;;;;;4.68;3.75;;;15.80;92.30;;;;;;4917447;29;20674;-80
2022/09/13 06:47:34;;;;;;;4.88;4.00;;;15.80;92.40;;;;;;4929037;29;20162;-83
2022/09/13 06:50:00;;;;;;;4.38;3.97;;;15.80;92.40;;;;;;4913470;29;20031;-82
2022/09/13 06:52:26;;;;;;;4.97;3.80;;;15.80;92.40;;;;;;4913249;29;20491;-84
2022/09/13 06:54:52;;;;;;;5.35;4.13;;;15.80;92.40;;;;;;4910976;29;20038;-84
2022/09/13 06:57:18;;;;;;;4.50;3.80;;;15.80;92.50;;;;;;4911565;29;20029;-83
2022/09/13 06:59:44;;;;;;;4.78;4.10;;;15.80;92.50;;;;;;4922555;29;20044;-84
2022/09/13 07:02:11;;;;;;;4.65;4.13;;;15.80;92.60;;;;;;4909521;29;20068;-84
2022/09/13 07:04:36;;;;;;;4.93;4.35;;;15.80;92.50;;;;;;4916692;29;20502;-83
2022/09/13 07:07:02;;;;;;;4.13;3.42;;;15.90;92.50;;;;;;4908569;29;20027;-85
2022/09/13 07:09:28;;;;;;;5.63;4.40;;;15.80;92.50;;;;;;4916134;29;20036;-85
2022/09/13 07:11:55;;;;;;;4.72;3.95;;;15.90;92.60;;;;;;4897570;29;20036;-87
2022/09/13 07:14:26;;;;;;;4.45;4.00;;;15.90;92.60;;;;;;4908584;29;20082;-85
2022/09/13 07:16:53;;;;;;;4.90;3.90;;;15.90;92.60;;;;;;4909553;29;20059;-85
2022/09/13 07:19:25;;;;;;;4.50;4.00;;;15.90;92.60;;;;;;4907794;29;20041;-85
2022/09/13 07:21:51;;;;;;;4.88;4.03;;;15.90;92.60;;;;;;4909446;29;20039;-84
2022/09/13 07:24:19;;;;;;;4.47;3.85;;;15.90;92.60;;;;;;4905778;29;20043;-84
2022/09/13 07:26:45;;;;;;;5.13;4.07;;;15.90;92.60;;;;;;4914772;28;20912;-84
2022/09/13 07:29:15;;;;;;;5.20;4.60;;;15.90;92.60;;;;;;4911096;29;20039;-85
2022/09/13 07:31:43;;;;;;;4.57;3.90;;;16.00;92.50;;;;;;4901433;28;21773;-85
2022/09/13 07:34:14;;;;;;;5.57;4.00;;;16.00;92.50;;;;;;4916064;28;20035;-81
2022/09/13 07:36:45;;;;;;;4.93;4.03;;;16.00;92.50;;;;;;4932089;28;20807;-82
2022/09/13 07:39:12;;;;;;;3.53;3.22;;;16.00;92.50;;;;;;4918461;28;20027;-83
2022/09/13 07:41:38;;;;;;;4.60;3.92;;;16.00;92.50;;;;;;4929933;28;20122;-84
2022/09/13 07:44:06;;;;;;;3.58;3.28;;;16.00;92.70;;;;;;4932031;28;20035;-83
2022/09/13 07:46:42;;;;;;;3.97;3.35;;;16.00;92.70;;;;;;4919465;29;20039;-84
2022/09/13 07:49:12;;;;;;;3.45;3.15;;;16.00;92.70;;;;;;4917867;28;20281;-84
2022/09/13 07:51:40;;;;;;;4.28;3.17;;;16.00;92.60;;;;;;4920364;29;20027;-85
2022/09/13 07:54:10;;;;;;;2.80;2.50;;;16.00;92.50;;;;;;4925398;28;20034;-83
2022/09/13 07:56:38;;;;;;;2.53;2.30;;;15.90;92.50;;;;;;4916838;28;20390;-83
2022/09/13 07:59:06;;;;;;;2.80;2.40;;;15.90;92.50;;;;;;4913335;29;23011;-85
2022/09/13 08:01:40;;;;;;;3.25;2.55;;;15.90;92.40;;;;;;4911994;28;20158;-83
2022/09/13 08:04:12;;;;;;;2.30;2.10;;;15.90;92.50;;;;;;4911630;29;20854;-84
2022/09/13 08:06:39;;;;;;;3.53;2.55;;;15.80;92.40;;;;;;4910752;28;20027;-84
2022/09/13 08:09:06;;;;;;;2.50;2.30;;;15.80;92.50;;;;;;4915280;28;20038;-84
2022/09/13 08:11:44;;;;;;;3.30;2.20;;;15.80;92.50;;;;;;4928052;28;20031;-83
2022/09/13 08:14:12;;;;;;;2.50;2.28;;;15.80;92.40;;;;;;4920714;29;20082;-83
2022/09/13 08:16:38;;;;;;;2.55;2.25;;;15.80;92.40;;;;;;4918997;29;20114;-84
2022/09/13 08:19:05;;;;;;;4.95;2.30;;;15.80;92.30;;;;;;4929116;29;20046;-83
2022/09/13 08:21:36;;;;;;;4.68;2.70;;;15.80;92.30;;;;;;4919493;29;20046;-83
2022/09/13 08:24:03;;;;;;;3.42;2.90;;;15.80;92.20;;;;;;4903979;28;20486;-83
2022/09/13 08:26:31;;;;;;;4.18;3.33;;;15.80;92.30;;;;;;4931386;28;20062;-82
2022/09/13 08:28:59;;;;;;;4.82;3.65;;;15.80;92.30;;;;;;4917400;29;20031;-83
2022/09/13 08:31:26;;;;;;;4.90;3.10;;;15.70;92.30;;;;;;4929131;28;20027;-83
2022/09/13 08:33:52;;;;;;;5.15;3.88;;;15.70;92.20;;;;;;4912860;29;20442;-82
2022/09/13 08:36:18;;;;;;;4.93;3.50;;;15.70;92.20;;;;;;4924937;29;20032;-83
2022/09/13 08:38:50;;;;;;;5.55;4.10;;;15.60;92.10;;;;;;4929586;28;20035;-82
2022/09/13 08:41:33;;;;;;;6.30;4.80;;;15.60;92.10;;;;;;4912823;29;20106;-82
2022/09/13 08:44:08;;;;;;;7.68;5.65;;;15.60;91.90;;;;;;4915691;29;20051;-82
2022/09/13 08:46:45;;;;;;;7.00;4.80;;;15.60;91.60;;;;;;4915284;29;20751;-82
2022/09/13 08:49:21;;;;;;;7.03;5.03;;;15.50;91.60;;;;;;4908497;29;20043;-81
2022/09/13 08:51:50;;;;;;;6.97;4.88;;;15.50;91.70;;;;;;4910897;28;20023;-82
2022/09/13 08:54:19;;;;;;;6.18;5.20;;;15.50;91.70;;;;;;4909875;29;20094;-84
2022/09/13 08:57:21;;;;;;;8.80;5.50;;;15.50;91.70;;;;;;4908320;29;20035;-82
2022/09/13 09:00:11;;;;;;;6.25;4.72;;;15.50;91.70;;;;;;4893923;29;20117;-83
2022/09/13 09:02:36;;;;;;;6.10;4.63;;;15.50;91.80;;;;;;4917537;29;20046;-82
2022/09/13 09:05:22;;;;;;;8.00;5.97;;;15.50;91.80;;;;;;4920057;29;20067;-84
2022/09/13 09:07:51;;;;;;;7.07;5.30;;;15.50;91.90;;;;;;4909355;29;20118;-83
2022/09/13 09:10:31;;;;;;;6.82;5.32;;;15.60;91.80;;;;;;4918291;29;20447;-84
2022/09/13 09:13:04;;;;;;;11.18;7.35;;;15.60;91.70;;;;;;4938410;29;20069;-82
2022/09/13 09:15:40;;;;;;;8.50;6.00;;;15.60;91.60;;;;;;4915957;29;20502;-83
2022/09/13 09:18:16;;;;;;;7.97;6.05;;;15.60;91.60;;;;;;4934334;29;20031;-83
2022/09/13 09:20:48;;;;;;;6.80;5.40;;;15.60;91.60;;;;;;4932074;28;20039;-82
2022/09/13 09:23:17;;;;;;;7.00;4.85;;;15.60;91.60;;;;;;4913479;29;20507;-84
2022/09/13 09:25:43;;;;;;;9.73;5.90;;;15.60;91.70;;;;;;4914732;29;20063;-84
2022/09/13 09:28:14;;;;;;;7.30;5.18;;;15.70;92.00;;;;;;4926349;29;20051;-83
2022/09/13 09:31:13;;;;;;;7.38;5.55;;;15.70;91.60;;;;;;4917592;29;20458;-82
2022/09/13 09:34:00;;;;;;;8.75;5.90;;;15.70;91.50;;;;;;4918638;29;20432;-83
2022/09/13 09:37:06;;;;;;;8.07;5.78;;;15.70;91.30;;;;;;4921459;29;20266;-85
2022/09/13 09:39:37;;;;;;;7.28;5.65;;;15.60;91.30;;;;;;4932113;28;20035;-84
2022/09/13 09:42:10;;;;;;;8.70;6.78;;;15.60;91.60;;;;;;4917172;29;20031;-82
2022/09/13 09:44:39;;;;;;;8.82;7.00;;;15.60;91.60;;;;;;4917897;29;20095;-83
2022/09/13 09:47:23;;;;;;;8.57;6.93;;;15.60;91.50;;;;;;4900218;29;20139;-83
2022/09/13 09:50:10;;;;;;;9.32;7.30;;;15.60;91.20;;;;;;4910192;29;20035;-83
2022/09/13 09:52:44;;;;;;;8.57;6.93;;;15.60;91.20;;;;;;4914627;28;20042;-83
2022/09/13 09:55:43;;;;;;;10.05;7.75;;;15.60;91.30;;;;;;4910223;29;20645;-84
2022/09/13 09:58:10;;;;;;;8.70;7.15;;;15.60;91.00;;;;;;4904926;29;20126;-84
2022/09/13 10:00:51;;;;;;;8.48;6.65;;;15.60;91.10;;;;;;4919641;29;20074;-83
2022/09/13 10:03:19;;;;;;;12.05;7.75;;;15.60;91.10;;;;;;4908154;29;20089;-84
2022/09/13 10:05:47;;;;;;;10.27;7.47;;;15.60;90.90;;;;;;4923343;28;20042;-84
2022/09/13 10:08:32;;;;;;;9.02;7.25;;;15.60;90.90;;;;;;4910828;29;20039;-83
2022/09/13 10:10:59;;;;;;;9.00;7.40;;;15.70;90.80;;;;;;4931064;28;20039;-82
2022/09/13 10:13:26;;;;;;;9.50;6.95;;;15.70;90.90;;;;;;4936202;28;20065;-82
2022/09/13 10:16:03;;;;;;;8.52;7.05;;;15.70;90.80;;;;;;4914225;29;20025;-82
2022/09/13 10:18:32;;;;;;;9.10;7.20;;;15.70;90.60;;;;;;4937731;29;20035;-82
2022/09/13 10:21:00;;;;;;;8.40;6.93;;;15.70;90.50;;;;;;4931548;28;20035;-83
2022/09/13 10:23:26;;;;;;;8.95;7.22;;;15.70;90.40;;;;;;4916457;29;20114;-82
2022/09/13 10:26:08;;;;;;;7.97;6.70;;;15.70;90.30;;;;;;4931367;28;20078;-82
2022/09/13 10:28:48;;;;;;;8.85;7.07;;;15.70;90.20;;;;;;4931016;28;20027;-82
2022/09/13 10:31:16;;;;;;;7.60;6.70;;;15.60;90.20;;;;;;4932416;28;20090;-83
2022/09/13 10:34:04;;;;;;;9.18;6.72;;;15.60;90.10;;;;;;4910607;29;20130;-82
2022/09/13 10:36:36;;;;;;;9.60;6.53;;;15.60;90.10;;;;;;4921494;29;20487;-81
2022/09/13 10:39:16;;;;;;;9.15;7.25;;;15.60;90.10;;;;;;4934585;28;20031;-82
2022/09/13 10:41:53;;;;;;;10.65;6.43;;;15.60;90.10;;;;;;4921945;29;20027;-82
2022/09/13 10:44:40;;;;;;;7.80;5.95;;;15.50;90.10;;;;;;4924110;29;20095;-82
2022/09/13 10:47:11;;;;;;;7.35;6.55;;;15.60;90.10;;;;;;4932971;29;20992;-81
2022/09/13 10:49:38;;;;;;;;;;;15.50;90.30;;;;;;4939928;28;20059;-82
2022/09/13 10:52:33;;;;;;;6.75;5.15;;;15.50;90.00;;;;;;4913581;29;20009;-82
2022/09/13 10:55:17;;;;;;;7.50;5.65;;;15.60;90.20;;;;;;4921147;29;20038;-83
2022/09/13 10:57:49;;;;;;;6.75;5.53;;;15.60;90.20;;;;;;4922442;28;20031;-82
2022/09/13 11:00:29;;;;;;;7.88;6.25;;;15.60;90.10;;;;;;4918226;29;20131;-82
2022/09/13 11:03:01;;;;;;;6.88;5.65;;;15.60;90.10;;;;;;4914715;28;20028;-82
2022/09/13 11:05:36;;;;;;;8.80;6.35;;;15.70;90.00;;;;;;4931176;28;20055;-82
2022/09/13 11:08:17;;;;;;;7.95;6.30;;;15.70;89.70;;;;;;4913676;28;20038;-82
2022/09/13 11:11:00;;;;;;;7.95;5.97;;;15.80;89.80;;;;;;4912830;28;20162;-83
2022/09/13 11:14:03;;;;;;;6.00;5.13;;;15.80;89.60;;;;;;4922768;29;20110;-82
2022/09/13 11:16:38;;;;;;;6.05;4.82;;;15.90;89.40;;;;;;4923334;28;20031;-83
2022/09/13 11:19:31;;;;;;;7.05;5.50;;;16.00;89.70;;;;;;4926309;29;20039;-83
2022/09/13 11:22:16;;;;;;;8.65;5.68;;;16.10;89.10;;;;;;4921144;29;20162;-83
2022/09/13 11:24:51;;;;;;;7.40;6.05;;;16.20;88.70;;;;;;4939821;29;20102;-82
2022/09/13 11:27:51;;;;;;;6.57;5.35;;;16.20;87.90;;;;;;4918041;29;20056;-83
2022/09/13 11:30:22;;;;;;;8.27;6.22;;;16.20;87.70;;;;;;4931247;28;20057;-83
2022/09/13 11:32:57;;;;;;;;;;;16.20;87.60;;;;;;4918629;28;20035;-83
2022/09/13 11:35:33;;;;;;;7.35;6.47;;;16.10;87.30;;;;;;4918536;29;20029;-84
2022/09/13 11:38:17;;;;;;;8.25;6.55;;;16.10;87.30;;;;;;4917541;29;20145;-84
2022/09/13 11:40:56;;;;;;;8.68;6.88;;;16.20;87.10;;;;;;4916023;29;20035;-84
2022/09/13 11:43:47;;;;;;;6.38;5.75;;;16.10;86.80;;;;;;4917507;29;20031;-84
2022/09/13 11:46:19;;;;;;;8.07;6.10;;;16.10;86.80;;;;;;4916704;28;20142;-81
2022/09/13 11:49:22;;;;;;;6.82;5.65;;;16.10;87.00;;;;;;4929161;28;20115;-82
2022/09/13 11:52:06;;;;;;;7.85;6.07;;;16.10;87.10;;;;;;4921400;29;20039;-83
2022/09/13 11:54:54;;;;;;;9.35;7.70;;;16.10;87.00;;;;;;4919361;29;20055;-84
2022/09/13 11:57:43;;;;;;;7.93;6.50;;;16.10;86.50;;;;;;4928696;29;20628;-84
2022/09/13 12:00:27;;;;;;;10.10;7.40;;;16.00;86.00;;;;;;4921070;29;20356;-83
2022/09/13 12:03:08;;;;;;;7.15;6.05;;;16.00;86.20;;;;;;4914626;29;21339;-83
2022/09/13 12:05:41;;;;;;;8.57;6.38;;;16.00;86.30;;;;;;4921774;28;21457;-83
2022/09/13 12:08:14;;;;;;;9.10;6.65;;;15.90;86.20;;;;;;4923365;28;20126;-85
2022/09/13 12:11:10;;;;;;;9.25;7.65;;;15.90;86.40;;;;;;4917422;29;20046;-82
2022/09/13 12:13:42;;;;;;;7.32;6.13;;;15.90;86.20;;;;;;4891969;29;20035;-83
2022/09/13 12:16:15;;;;;;;7.40;6.22;;;15.80;86.40;;;;;;4931770;28;20046;-84
2022/09/13 12:18:51;;;;;;;7.50;6.55;;;15.80;86.40;;;;;;4906192;28;20087;-83
2022/09/13 12:21:22;;;;;;;7.18;5.82;;;15.80;86.20;;;;;;4920345;29;20044;-84
2022/09/13 12:24:00;;;;;;;7.18;5.93;;;15.80;86.10;;;;;;4921323;29;20035;-83
2022/09/13 12:26:43;;;;;;;7.85;6.25;;;15.80;86.10;;;;;;4921853;29;20086;-84
2022/09/13 12:29:35;;;;;;;7.53;6.32;;;15.80;86.30;;;;;;4920572;29;20066;-83
2022/09/13 12:32:03;;;;;;;7.63;5.78;;;15.80;86.10;;;;;;4919704;29;20038;-84
2022/09/13 12:34:51;;;;;;;7.05;6.10;;;15.80;86.30;;;;;;4910623;28;20042;-82
2022/09/13 12:37:38;;;;;;;7.32;6.40;;;15.80;86.30;;;;;;4919957;29;20035;-84
2022/09/13 12:40:35;;;;;;;8.32;6.32;;;15.80;86.80;;;;;;4922739;29;20042;-86
2022/09/13 12:43:00;;;;;;;8.23;5.65;;;15.80;86.30;;;;;;4913706;29;20035;-84
2022/09/13 12:46:07;;;;;;;7.70;5.95;;;15.80;86.60;;;;;;4921633;29;20038;-83
2022/09/13 12:48:44;;;;;;;6.10;5.47;;;15.80;86.50;;;;;;4920024;29;20059;-83
2022/09/13 12:51:35;;;;;;;6.50;5.47;;;15.80;86.40;;;;;;4916823;29;20031;-84
2022/09/13 12:54:19;;;;;;;5.05;4.53;;;15.80;86.50;;;;;;4920372;29;20086;-85
2022/09/13 12:57:18;;;;;;;8.00;5.70;;;15.80;86.30;;;;;;4920596;29;20438;-84
2022/09/13 13:00:12;;;;;;;7.38;6.13;;;15.80;86.40;;;;;;4917353;28;20039;-86
2022/09/13 13:02:59;;;;;;;6.93;5.47;;;15.80;86.10;;;;;;4919880;29;20553;-85
2022/09/13 13:05:29;;;;;;;6.95;5.78;;;15.80;86.10;;;;;;4934456;28;20034;-83
2022/09/13 13:08:24;;;;;;;6.73;5.27;;;15.80;86.00;;;;;;4925744;29;20027;-84
2022/09/13 13:11:09;;;;;;;6.50;5.10;;;15.80;85.80;;;;;;4914024;29;20297;-84
2022/09/13 13:13:36;;;;;;;8.00;5.80;;;15.70;85.50;;;;;;4921972;28;20051;-82
2022/09/13 13:16:19;;;;;;;8.80;6.50;;;15.70;85.70;;;;;;4912355;29;20268;-84
2022/09/13 13:18:47;;;;;;;8.10;5.55;;;15.70;85.60;;;;;;4912861;29;20106;-84
2022/09/13 13:21:37;;;;;;;7.30;5.13;;;15.60;85.50;;;;;;4920064;29;20795;-84